Time;durP1;ratioP1;P1;durP2;ratioP2;P2;SDS_P1;SDS_P2;PMS_P1;PMS_P2;Temp;Humidity;BMP_temperature;BMP_pressure;BME280_temperature;BME280_humidity;BME280_pressure;Samples;Min_cycle;Max_cycle;Signal;HPM_P1;HPM_P2
2022/03/13 00:02:16;;;;;;;9.17;8.20;;;5.30;56.80;;;;;;5998524;23;21016;-68
2022/03/13 00:05:08;;;;;;;9.73;8.73;;;5.30;57.90;;;;;;6011955;23;20460;-69
2022/03/13 00:07:57;;;;;;;8.90;8.10;;;5.20;58.40;;;;;;6025846;23;20476;-68
2022/03/13 00:10:46;;;;;;;10.90;8.70;;;5.10;59.10;;;;;;6006581;23;20508;-68
2022/03/13 00:13:38;;;;;;;9.97;8.53;;;5.10;58.40;;;;;;6004417;23;20541;-68
2022/03/13 00:16:29;;;;;;;9.67;8.40;;;5.00;59.00;;;;;;6005850;23;20481;-68
2022/03/13 00:19:19;;;;;;;9.87;8.87;;;5.00;60.10;;;;;;6005634;23;20781;-68
2022/03/13 00:22:09;;;;;;;9.90;8.90;;;5.00;60.00;;;;;;6000270;23;20441;-68
2022/03/13 00:24:59;;;;;;;9.83;8.83;;;4.90;59.60;;;;;;6005919;23;20636;-68
2022/03/13 00:27:48;;;;;;;10.00;8.27;;;5.00;59.70;;;;;;6009176;23;21027;-69
2022/03/13 00:30:36;;;;;;;10.90;9.10;;;4.90;58.60;;;;;;6007021;23;20513;-68
2022/03/13 00:33:26;;;;;;;9.60;8.70;;;4.90;58.30;;;;;;6008893;23;20520;-68
2022/03/13 00:36:14;;;;;;;10.30;9.20;;;4.90;59.00;;;;;;6004859;23;20485;-68
2022/03/13 00:39:02;;;;;;;9.80;8.33;;;4.80;58.70;;;;;;6007240;23;20445;-68
2022/03/13 00:41:51;;;;;;;9.47;8.40;;;4.80;60.30;;;;;;6005806;23;20544;-68
2022/03/13 00:44:39;;;;;;;15.70;9.27;;;4.70;59.90;;;;;;5996013;23;21067;-68
2022/03/13 00:47:27;;;;;;;10.30;8.97;;;4.70;61.80;;;;;;6005527;23;20410;-68
2022/03/13 00:50:17;;;;;;;10.77;8.37;;;4.70;59.80;;;;;;6005925;23;20524;-68
2022/03/13 00:53:06;;;;;;;9.90;8.90;;;4.70;60.10;;;;;;6014725;23;20433;-69
2022/03/13 00:55:54;;;;;;;10.23;8.70;;;4.70;61.40;;;;;;5996554;23;20457;-69
2022/03/13 00:58:42;;;;;;;9.43;8.50;;;4.70;61.20;;;;;;6003996;23;20576;-69
2022/03/13 01:01:30;;;;;;;12.17;9.90;;;4.60;61.30;;;;;;6004191;23;20429;-69
2022/03/13 01:04:19;;;;;;;10.80;9.17;;;4.50;61.30;;;;;;6003451;23;20472;-69
2022/03/13 01:07:08;;;;;;;11.10;9.90;;;4.50;61.10;;;;;;6004611;23;20462;-69
2022/03/13 01:09:56;;;;;;;12.10;9.27;;;4.50;61.00;;;;;;6003027;23;20495;-70
2022/03/13 01:12:46;;;;;;;11.53;9.30;;;4.40;60.60;;;;;;6003267;23;20442;-69
2022/03/13 01:15:38;;;;;;;10.93;8.80;;;4.40;62.10;;;;;;6003403;23;20549;-69
2022/03/13 01:18:26;;;;;;;14.00;8.90;;;4.40;62.50;;;;;;6005539;23;20497;-69
2022/03/13 01:21:15;;;;;;;9.20;8.23;;;4.30;60.80;;;;;;6015474;23;20446;-69
2022/03/13 01:24:24;;;;;;;10.83;8.97;;;4.30;61.60;;;;;;6011690;23;21030;-69
2022/03/13 01:27:14;;;;;;;9.90;8.90;;;4.30;61.30;;;;;;5998981;23;20600;-69
2022/03/13 01:30:03;;;;;;;10.03;9.03;;;4.30;62.90;;;;;;6003432;23;20783;-69
2022/03/13 01:32:53;;;;;;;9.90;8.80;;;4.20;61.20;;;;;;6004112;23;20516;-69
2022/03/13 01:35:41;;;;;;;10.40;9.00;;;4.10;61.90;;;;;;6004345;23;20490;-69
2022/03/13 01:38:33;;;;;;;11.33;9.30;;;4.10;61.30;;;;;;6002687;23;20505;-69
2022/03/13 01:41:24;;;;;;;10.70;9.20;;;4.10;62.10;;;;;;6014189;23;20741;-69
2022/03/13 01:44:12;;;;;;;10.13;9.07;;;4.10;62.90;;;;;;5988080;23;20541;-69
2022/03/13 01:47:01;;;;;;;9.57;8.20;;;4.10;63.10;;;;;;5977945;24;20533;-69
2022/03/13 01:49:51;;;;;;;9.83;8.83;;;4.00;63.70;;;;;;5978557;23;20450;-69
2022/03/13 01:52:41;;;;;;;11.97;8.50;;;4.00;64.30;;;;;;5976332;24;20442;-69
2022/03/13 01:55:29;;;;;;;10.20;9.20;;;3.90;64.70;;;;;;5976603;23;21078;-69
2022/03/13 01:58:19;;;;;;;10.30;9.30;;;3.90;63.90;;;;;;5976935;24;20468;-69
2022/03/13 02:01:08;;;;;;;10.03;9.00;;;3.90;63.20;;;;;;5978370;23;20482;-69
2022/03/13 02:03:58;;;;;;;10.37;9.27;;;3.90;63.40;;;;;;5968135;23;20546;-69
2022/03/13 02:06:46;;;;;;;9.80;8.87;;;3.80;65.30;;;;;;5978093;23;20449;-69
2022/03/13 02:09:34;;;;;;;10.87;9.67;;;3.80;65.60;;;;;;5976717;24;20415;-69
2022/03/13 02:12:26;;;;;;;10.70;9.40;;;3.80;65.80;;;;;;5977696;23;20473;-69
2022/03/13 02:15:16;;;;;;;10.60;9.50;;;3.70;64.40;;;;;;5982875;23;20506;-69
2022/03/13 02:18:06;;;;;;;9.77;8.20;;;3.70;65.60;;;;;;5976808;24;20498;-70
2022/03/13 02:20:55;;;;;;;10.97;9.60;;;3.80;65.30;;;;;;5975078;24;20874;-69
2022/03/13 02:23:44;;;;;;;9.93;8.83;;;3.80;65.90;;;;;;5966989;24;20613;-69
2022/03/13 02:26:34;;;;;;;10.93;9.70;;;3.70;65.10;;;;;;5975878;24;20791;-69
2022/03/13 02:29:22;;;;;;;11.77;9.27;;;3.60;65.30;;;;;;5977053;24;20517;-69
2022/03/13 02:32:10;;;;;;;9.83;8.80;;;3.60;66.20;;;;;;5971230;24;20910;-70
2022/03/13 02:34:58;;;;;;;11.73;8.93;;;3.60;67.80;;;;;;5976342;24;20719;-69
2022/03/13 02:37:49;;;;;;;12.23;9.50;;;3.60;66.00;;;;;;5975644;24;20487;-69
2022/03/13 02:40:39;;;;;;;10.00;9.00;;;3.50;66.10;;;;;;5976475;24;20422;-69
2022/03/13 02:43:27;;;;;;;10.73;8.57;;;3.50;65.70;;;;;;5976434;24;21132;-70
2022/03/13 02:46:20;;;;;;;12.70;9.40;;;3.40;66.60;;;;;;6019122;23;20473;-70
2022/03/13 02:49:09;;;;;;;10.93;9.83;;;3.40;67.40;;;;;;6001746;23;20719;-69
2022/03/13 02:51:59;;;;;;;9.97;8.47;;;3.40;68.90;;;;;;6003643;23;20489;-69
2022/03/13 02:54:48;;;;;;;11.07;9.33;;;3.40;67.10;;;;;;5988296;23;20470;-69
2022/03/13 02:57:39;;;;;;;13.90;10.23;;;3.40;68.20;;;;;;5976226;24;20510;-69
2022/03/13 03:00:43;;;;;;;14.73;9.50;;;3.40;68.40;;;;;;5984938;24;20513;-69
2022/03/13 03:03:31;;;;;;;9.60;8.60;;;3.30;69.30;;;;;;5975460;24;20512;-69
2022/03/13 03:06:19;;;;;;;12.00;9.70;;;3.30;70.10;;;;;;5971756;24;20470;-69
2022/03/13 03:09:08;;;;;;;10.37;9.00;;;3.20;70.00;;;;;;5973943;24;20498;-69
2022/03/13 03:11:57;;;;;;;11.43;9.00;;;3.10;70.10;;;;;;5977262;24;20427;-69
2022/03/13 03:14:46;;;;;;;10.90;9.80;;;3.20;72.00;;;;;;5946886;24;20524;-69
2022/03/13 03:17:34;;;;;;;10.37;9.27;;;3.10;70.40;;;;;;5945721;24;20504;-69
2022/03/13 03:20:23;;;;;;;12.60;10.27;;;3.10;73.10;;;;;;5946901;24;20483;-69
2022/03/13 03:23:11;;;;;;;12.40;10.17;;;3.10;72.00;;;;;;5948656;24;20496;-69
2022/03/13 03:26:00;;;;;;;11.70;10.00;;;3.10;72.90;;;;;;5938667;24;20935;-69
2022/03/13 03:28:48;;;;;;;11.50;10.10;;;3.00;72.10;;;;;;5946167;24;20420;-69
2022/03/13 03:31:43;;;;;;;11.30;9.13;;;3.00;71.90;;;;;;5948298;24;20480;-69
2022/03/13 03:34:34;;;;;;;12.70;10.50;;;3.00;74.00;;;;;;5946517;24;20462;-69
2022/03/13 03:37:22;;;;;;;11.27;10.07;;;2.90;73.50;;;;;;5945528;24;20502;-69
2022/03/13 03:40:12;;;;;;;12.17;10.50;;;2.90;74.00;;;;;;5949712;23;20503;-69
2022/03/13 03:43:01;;;;;;;15.10;10.80;;;2.90;75.00;;;;;;5950036;23;20913;-69
2022/03/13 03:45:50;;;;;;;12.00;10.03;;;2.80;74.50;;;;;;5946676;24;20466;-69
2022/03/13 03:48:39;;;;;;;11.67;10.47;;;2.80;74.80;;;;;;5946897;24;20569;-69
2022/03/13 03:51:27;;;;;;;14.60;10.97;;;2.70;75.80;;;;;;5949862;24;20438;-69
2022/03/13 03:54:16;;;;;;;14.03;11.03;;;2.70;76.10;;;;;;5947429;24;20567;-69
2022/03/13 03:57:04;;;;;;;13.13;10.60;;;2.70;78.50;;;;;;5954004;23;21067;-70
2022/03/13 03:59:53;;;;;;;13.30;10.57;;;2.60;77.10;;;;;;5954539;24;20502;-70
2022/03/13 04:02:42;;;;;;;13.17;10.37;;;2.70;78.20;;;;;;5954945;24;20526;-69
2022/03/13 04:05:32;;;;;;;13.97;11.67;;;2.60;78.00;;;;;;5947051;24;20508;-69
2022/03/13 04:08:20;;;;;;;13.70;11.90;;;2.60;76.40;;;;;;5962988;24;20539;-70
2022/03/13 04:11:08;;;;;;;11.80;10.57;;;2.60;77.10;;;;;;5954836;23;20840;-69
2022/03/13 04:13:57;;;;;;;15.30;10.70;;;2.50;77.70;;;;;;5993791;23;20933;-69
2022/03/13 04:16:45;;;;;;;15.03;11.77;;;2.50;78.40;;;;;;6007579;23;20445;-69
2022/03/13 04:19:35;;;;;;;13.90;10.20;;;2.50;79.30;;;;;;6005447;23;20835;-69
2022/03/13 04:22:25;;;;;;;15.80;11.47;;;2.40;79.10;;;;;;6001736;23;20441;-69
2022/03/13 04:25:13;;;;;;;12.13;10.50;;;2.40;80.70;;;;;;6002544;23;20814;-69
2022/03/13 04:28:02;;;;;;;11.73;10.30;;;2.40;80.70;;;;;;6007357;23;21060;-69
2022/03/13 04:30:52;;;;;;;15.23;12.13;;;2.40;80.70;;;;;;6016513;23;20428;-69
2022/03/13 04:33:40;;;;;;;13.57;12.17;;;2.40;80.50;;;;;;6004224;23;20521;-69
2022/03/13 04:36:30;;;;;;;12.57;10.40;;;2.40;81.30;;;;;;6015443;23;20984;-70
2022/03/13 04:39:20;;;;;;;13.20;10.63;;;2.30;82.00;;;;;;6008231;23;20426;-69
2022/03/13 04:42:08;;;;;;;13.57;11.30;;;2.20;81.20;;;;;;5999814;23;20425;-69
2022/03/13 04:44:56;;;;;;;14.87;11.67;;;2.20;82.20;;;;;;6005371;23;20525;-69
2022/03/13 04:47:45;;;;;;;11.93;10.73;;;2.20;80.80;;;;;;6009243;23;20477;-69
2022/03/13 04:50:33;;;;;;;14.07;11.90;;;2.20;81.40;;;;;;6004583;23;20437;-69
2022/03/13 04:53:22;;;;;;;15.40;11.40;;;2.20;81.40;;;;;;6006958;23;20524;-68
2022/03/13 04:56:13;;;;;;;12.40;11.10;;;2.20;82.30;;;;;;5956914;24;20780;-69
2022/03/13 04:59:02;;;;;;;13.77;10.60;;;2.10;80.90;;;;;;5979673;24;20419;-69
2022/03/13 05:01:52;;;;;;;12.70;10.33;;;2.10;80.60;;;;;;5963590;24;20593;-69
2022/03/13 05:04:43;;;;;;;12.50;10.37;;;2.10;81.80;;;;;;5990278;23;20460;-69
2022/03/13 05:07:32;;;;;;;14.03;10.93;;;2.10;81.90;;;;;;6008759;23;21330;-69
2022/03/13 05:10:20;;;;;;;13.97;11.03;;;2.10;81.40;;;;;;6005376;23;20499;-69
2022/03/13 05:13:14;;;;;;;13.80;10.33;;;2.10;82.30;;;;;;6006337;23;20524;-69
2022/03/13 05:16:04;;;;;;;14.90;10.67;;;2.10;83.60;;;;;;5987680;23;20421;-69
2022/03/13 05:18:55;;;;;;;12.77;11.27;;;2.10;83.50;;;;;;6007574;23;20413;-69
2022/03/13 05:21:51;;;;;;;14.87;11.30;;;2.00;82.40;;;;;;6017073;23;20470;-69
2022/03/13 05:24:40;;;;;;;12.00;10.50;;;2.00;84.40;;;;;;6028761;23;20453;-69
2022/03/13 05:27:28;;;;;;;14.13;11.53;;;1.90;83.50;;;;;;6016882;23;20448;-69
2022/03/13 05:30:20;;;;;;;15.27;11.77;;;1.90;84.10;;;;;;6007335;23;20477;-69
2022/03/13 05:33:08;;;;;;;12.90;10.40;;;1.90;84.60;;;;;;6007386;23;20433;-69
2022/03/13 05:35:57;;;;;;;12.63;11.33;;;1.90;85.70;;;;;;6006500;23;20481;-69
2022/03/13 05:38:47;;;;;;;14.50;10.90;;;1.80;85.80;;;;;;6007285;23;20410;-69
2022/03/13 05:41:40;;;;;;;12.23;11.00;;;1.80;84.90;;;;;;6012587;23;20418;-69
2022/03/13 05:44:35;;;;;;;13.17;10.90;;;1.80;84.90;;;;;;6010545;23;20449;-69
2022/03/13 05:47:25;;;;;;;13.13;10.63;;;1.80;86.30;;;;;;6007495;23;20529;-69
2022/03/13 05:50:13;;;;;;;13.53;11.40;;;1.80;86.90;;;;;;6007538;23;20439;-69
2022/03/13 05:53:02;;;;;;;13.53;11.10;;;1.70;86.00;;;;;;6007489;23;20489;-69
2022/03/13 05:55:50;;;;;;;11.90;10.63;;;1.70;85.70;;;;;;6003674;23;20448;-69
2022/03/13 05:58:38;;;;;;;15.20;11.00;;;1.70;85.90;;;;;;6006395;23;20811;-69
2022/03/13 06:01:30;;;;;;;13.63;11.43;;;1.60;84.40;;;;;;6007441;23;20446;-69
2022/03/13 06:04:25;;;;;;;14.53;10.37;;;1.60;84.80;;;;;;6003205;23;20453;-69
2022/03/13 06:07:13;;;;;;;12.47;10.33;;;1.60;85.10;;;;;;6006470;23;20414;-69
2022/03/13 06:10:03;;;;;;;12.23;10.17;;;1.60;86.20;;;;;;6006157;23;20441;-69
2022/03/13 06:12:51;;;;;;;13.53;11.57;;;1.70;86.40;;;;;;6005446;23;20528;-69
2022/03/13 06:15:39;;;;;;;13.40;10.17;;;1.70;85.70;;;;;;6006331;23;20450;-69
2022/03/13 06:18:28;;;;;;;12.30;10.63;;;1.70;86.10;;;;;;6006049;23;20521;-69
2022/03/13 06:21:17;;;;;;;12.57;9.83;;;1.70;85.40;;;;;;5999206;23;20501;-69
2022/03/13 06:24:08;;;;;;;12.97;10.47;;;1.70;85.60;;;;;;6004981;23;20457;-69
2022/03/13 06:26:56;;;;;;;12.60;9.77;;;1.70;85.70;;;;;;6015421;23;20822;-70
2022/03/13 06:29:45;;;;;;;12.20;9.97;;;1.70;85.00;;;;;;6004280;23;20562;-69
2022/03/13 06:32:34;;;;;;;11.97;10.03;;;1.80;83.90;;;;;;6004991;23;20433;-69
2022/03/13 06:35:28;;;;;;;14.10;10.07;;;1.80;84.70;;;;;;6005542;23;20541;-69
2022/03/13 06:38:18;;;;;;;11.17;9.97;;;1.70;83.80;;;;;;6012481;23;20425;-69
2022/03/13 06:41:08;;;;;;;15.37;10.70;;;1.80;86.20;;;;;;6023729;23;20460;-69
2022/03/13 06:43:56;;;;;;;11.57;10.37;;;1.80;85.60;;;;;;6025223;23;20469;-69
2022/03/13 06:46:44;;;;;;;13.40;10.40;;;1.80;86.00;;;;;;6007503;23;20418;-69
2022/03/13 06:49:32;;;;;;;12.23;10.30;;;1.80;84.20;;;;;;6005535;23;20452;-69
2022/03/13 06:52:20;;;;;;;12.10;10.30;;;1.90;83.30;;;;;;6005378;23;20489;-69
2022/03/13 06:55:13;;;;;;;11.03;9.87;;;1.90;83.20;;;;;;6005996;23;20449;-69
2022/03/13 06:58:01;;;;;;;12.67;10.57;;;2.00;82.60;;;;;;5998498;23;20434;-69
2022/03/13 07:00:50;;;;;;;13.00;10.83;;;2.00;84.20;;;;;;6006969;23;20504;-69
2022/03/13 07:03:38;;;;;;;13.17;10.70;;;2.00;83.00;;;;;;6004955;23;20440;-69
2022/03/13 07:06:26;;;;;;;10.67;9.60;;;2.10;82.40;;;;;;6015715;23;20508;-69
2022/03/13 07:09:14;;;;;;;12.90;10.50;;;2.10;81.60;;;;;;6004127;23;20433;-69
2022/03/13 07:12:05;;;;;;;12.73;10.87;;;2.20;81.30;;;;;;6006303;23;20422;-69
2022/03/13 07:14:57;;;;;;;11.63;9.50;;;2.20;79.80;;;;;;6005502;23;20445;-69
2022/03/13 07:17:46;;;;;;;11.70;9.13;;;2.30;79.30;;;;;;5998909;23;21151;-69
2022/03/13 07:20:34;;;;;;;13.60;10.37;;;2.30;80.80;;;;;;6004991;23;20536;-69
2022/03/13 07:23:24;;;;;;;13.30;10.63;;;2.40;79.70;;;;;;6005187;23;20574;-69
2022/03/13 07:26:15;;;;;;;11.83;10.10;;;2.40;80.50;;;;;;5966244;23;20536;-69
2022/03/13 07:29:05;;;;;;;15.10;9.67;;;2.50;80.10;;;;;;6009055;23;20569;-70
2022/03/13 07:31:56;;;;;;;11.00;9.90;;;2.60;79.70;;;;;;6010081;23;20424;-70
2022/03/13 07:34:44;;;;;;;10.83;9.63;;;2.60;79.80;;;;;;6013761;23;20452;-70
2022/03/13 07:37:33;;;;;;;13.53;10.03;;;2.70;78.20;;;;;;6009926;23;21126;-69
2022/03/13 07:40:21;;;;;;;10.13;9.13;;;2.80;77.80;;;;;;5980600;23;20486;-71
2022/03/13 07:43:09;;;;;;;12.43;10.20;;;2.80;76.50;;;;;;6007726;23;20437;-74
2022/03/13 07:45:59;;;;;;;10.93;9.20;;;3.00;75.90;;;;;;6007695;23;20437;-69
2022/03/13 07:48:49;;;;;;;13.13;9.77;;;3.20;77.30;;;;;;6005137;23;20446;-69
2022/03/13 07:51:40;;;;;;;11.40;9.77;;;3.30;77.00;;;;;;5998701;23;20749;-69
2022/03/13 07:54:29;;;;;;;11.77;10.00;;;3.30;74.50;;;;;;6003268;23;20449;-69
2022/03/13 07:57:17;;;;;;;12.00;9.53;;;3.40;75.50;;;;;;6007787;23;20946;-69
2022/03/13 08:00:08;;;;;;;11.80;10.37;;;3.40;76.20;;;;;;5988287;23;20417;-69
2022/03/13 08:02:57;;;;;;;11.93;9.90;;;3.40;74.10;;;;;;6023108;23;20433;-69
2022/03/13 08:05:45;;;;;;;10.50;9.40;;;3.40;73.30;;;;;;6009864;23;20546;-69
2022/03/13 08:08:33;;;;;;;11.43;10.23;;;3.50;74.40;;;;;;6006729;23;20501;-68
2022/03/13 08:11:21;;;;;;;13.80;10.20;;;3.60;72.70;;;;;;6002959;23;20508;-69
2022/03/13 08:14:12;;;;;;;12.17;9.70;;;3.60;71.90;;;;;;6008765;23;20453;-68
2022/03/13 08:17:00;;;;;;;11.00;9.90;;;3.60;71.10;;;;;;6008123;23;20417;-69
2022/03/13 08:19:50;;;;;;;12.20;9.23;;;3.70;70.70;;;;;;6007967;23;20417;-68
2022/03/13 08:22:38;;;;;;;11.37;10.17;;;3.80;70.90;;;;;;6004537;23;20539;-68
2022/03/13 08:25:26;;;;;;;12.10;9.87;;;3.80;71.40;;;;;;6004660;23;20532;-68
2022/03/13 08:28:14;;;;;;;11.73;9.23;;;3.90;70.60;;;;;;6014093;23;20837;-68
2022/03/13 08:31:05;;;;;;;12.67;10.10;;;4.00;71.00;;;;;;5868280;24;20949;-69
2022/03/13 08:33:53;;;;;;;11.33;10.13;;;4.10;71.00;;;;;;5863876;24;20486;-71
2022/03/13 08:36:45;;;;;;;11.80;9.60;;;4.10;70.20;;;;;;5865354;24;20561;-69
2022/03/13 08:39:34;;;;;;;12.90;9.97;;;4.20;71.20;;;;;;5865939;24;20418;-69
2022/03/13 08:42:24;;;;;;;11.30;10.00;;;4.30;70.00;;;;;;5846856;24;21049;-69
2022/03/13 08:45:13;;;;;;;10.07;9.07;;;4.40;68.50;;;;;;5865507;24;20803;-69
2022/03/13 08:48:01;;;;;;;10.17;9.17;;;4.50;69.50;;;;;;5859233;24;20839;-69
2022/03/13 08:50:49;;;;;;;11.53;9.57;;;4.60;70.00;;;;;;5865778;24;20505;-68
2022/03/13 08:53:39;;;;;;;10.60;9.50;;;4.70;71.30;;;;;;5865377;24;20529;-69
2022/03/13 08:56:27;;;;;;;12.30;10.07;;;4.80;68.80;;;;;;5993130;23;20501;-69
2022/03/13 08:59:16;;;;;;;12.87;9.30;;;4.80;68.70;;;;;;6004466;23;20506;-69
2022/03/13 09:02:05;;;;;;;11.30;10.10;;;4.90;70.00;;;;;;6006101;23;20921;-69
2022/03/13 09:04:54;;;;;;;11.20;9.70;;;5.00;68.10;;;;;;6005829;23;20460;-68
2022/03/13 09:07:44;;;;;;;12.13;9.60;;;5.10;68.20;;;;;;6000204;23;20932;-69
2022/03/13 09:10:34;;;;;;;10.77;9.67;;;5.20;67.90;;;;;;6014542;23;20524;-70
2022/03/13 09:13:22;;;;;;;11.30;9.80;;;5.20;66.90;;;;;;6006536;23;20528;-69
2022/03/13 09:16:19;;;;;;;11.07;9.87;;;5.20;67.30;;;;;;5976907;24;21004;-68
2022/03/13 09:19:08;;;;;;;10.33;9.33;;;5.30;67.70;;;;;;5987690;24;20505;-69
2022/03/13 09:21:56;;;;;;;11.33;9.73;;;5.50;68.40;;;;;;5977962;24;20520;-69
2022/03/13 09:24:45;;;;;;;10.57;9.00;;;5.60;66.30;;;;;;5977677;24;20454;-69
2022/03/13 09:27:35;;;;;;;10.07;9.00;;;5.60;66.70;;;;;;5978722;24;20418;-68
2022/03/13 09:30:24;;;;;;;11.63;10.40;;;5.70;67.40;;;;;;5970121;24;21026;-68
2022/03/13 09:33:13;;;;;;;11.27;10.07;;;5.80;66.80;;;;;;5979435;24;20438;-68
2022/03/13 09:36:02;;;;;;;11.53;9.23;;;5.90;65.90;;;;;;6007131;23;20441;-68
2022/03/13 09:38:50;;;;;;;10.70;9.60;;;6.00;65.40;;;;;;6013295;23;20428;-69
2022/03/13 09:41:39;;;;;;;11.93;9.53;;;6.20;66.10;;;;;;6008509;23;20950;-69
2022/03/13 09:44:28;;;;;;;10.67;9.57;;;6.30;66.10;;;;;;6004498;23;20487;-69
2022/03/13 09:47:16;;;;;;;11.63;10.23;;;6.40;65.30;;;;;;6007029;23;20458;-69
2022/03/13 09:50:07;;;;;;;11.50;9.90;;;6.60;65.40;;;;;;6006621;23;20570;-69
2022/03/13 09:52:55;;;;;;;12.30;10.23;;;6.70;63.80;;;;;;6006725;23;20883;-69
2022/03/13 09:55:43;;;;;;;10.87;9.77;;;6.70;65.30;;;;;;6003469;23;20629;-69
2022/03/13 09:58:34;;;;;;;12.43;9.40;;;6.90;64.10;;;;;;6003166;23;20425;-69
2022/03/13 10:01:26;;;;;;;10.10;9.10;;;7.00;63.40;;;;;;5978859;23;20534;-69
2022/03/13 10:04:15;;;;;;;10.30;9.20;;;7.10;64.00;;;;;;6002220;23;20503;-69
2022/03/13 10:07:06;;;;;;;11.00;9.33;;;7.20;61.40;;;;;;6004458;23;20438;-69
2022/03/13 10:09:56;;;;;;;10.07;9.03;;;7.30;62.00;;;;;;6003137;23;20944;-69
2022/03/13 10:12:44;;;;;;;9.90;9.00;;;7.40;61.40;;;;;;6004019;23;20517;-69
2022/03/13 10:15:41;;;;;;;9.80;8.80;;;7.50;61.70;;;;;;6000527;23;20452;-69
2022/03/13 10:18:31;;;;;;;12.10;9.83;;;7.60;59.50;;;;;;6004004;23;20454;-69
2022/03/13 10:21:19;;;;;;;11.33;9.20;;;7.70;58.40;;;;;;5996761;23;20442;-69
2022/03/13 10:24:10;;;;;;;11.97;9.13;;;7.70;59.70;;;;;;6001002;23;20445;-69
2022/03/13 10:27:09;;;;;;;10.13;9.13;;;7.80;59.50;;;;;;6003978;23;20413;-71
2022/03/13 10:30:01;;;;;;;11.00;9.20;;;7.90;57.60;;;;;;6004092;23;20438;-69
2022/03/13 10:32:56;;;;;;;10.67;9.10;;;7.90;57.70;;;;;;6003025;23;20616;-69
2022/03/13 10:35:47;;;;;;;10.00;9.00;;;8.10;58.60;;;;;;6004263;23;20554;-69
2022/03/13 10:38:36;;;;;;;12.63;10.03;;;8.20;59.40;;;;;;6014475;23;20939;-69
2022/03/13 10:41:42;;;;;;;11.50;9.33;;;8.30;58.20;;;;;;5998015;23;20437;-69
2022/03/13 10:44:34;;;;;;;10.00;9.00;;;8.40;57.60;;;;;;6003455;23;20473;-70
2022/03/13 10:47:25;;;;;;;10.20;9.30;;;8.50;60.50;;;;;;6013522;23;20421;-69
2022/03/13 10:50:17;;;;;;;10.70;8.93;;;8.70;57.60;;;;;;6022277;23;20481;-69
2022/03/13 10:53:13;;;;;;;10.67;9.67;;;8.80;58.60;;;;;;6023064;23;20454;-70
2022/03/13 10:56:09;;;;;;;9.80;9.00;;;8.90;57.80;;;;;;5998341;23;20459;-69
2022/03/13 10:58:58;;;;;;;10.37;9.33;;;9.00;57.00;;;;;;6003222;23;20637;-69
2022/03/13 11:02:13;;;;;;;12.17;10.33;;;9.20;57.10;;;;;;6003766;23;20457;-70
2022/03/13 11:05:02;;;;;;;10.73;9.50;;;9.40;57.30;;;;;;5983957;23;20457;-69
2022/03/13 11:07:50;;;;;;;10.93;9.83;;;9.50;56.30;;;;;;5978572;23;20430;-70
2022/03/13 11:10:39;;;;;;;11.23;10.13;;;9.60;59.70;;;;;;5977377;24;20794;-70
2022/03/13 11:13:28;;;;;;;11.40;10.30;;;9.80;61.70;;;;;;5997590;23;20585;-69
2022/03/13 11:16:22;;;;;;;10.60;9.60;;;9.90;58.50;;;;;;5991378;23;20452;-69
2022/03/13 11:19:11;;;;;;;11.70;9.30;;;10.10;58.80;;;;;;6001950;23;20432;-69
2022/03/13 11:21:59;;;;;;;11.10;10.00;;;10.20;58.60;;;;;;6004037;23;20454;-70
2022/03/13 11:24:48;;;;;;;11.47;10.37;;;10.20;57.90;;;;;;5991115;23;20488;-70
2022/03/13 11:27:40;;;;;;;11.47;10.27;;;10.30;58.30;;;;;;5976828;24;20418;-70
2022/03/13 11:30:36;;;;;;;11.27;10.20;;;10.50;57.80;;;;;;5983948;23;20521;-70
2022/03/13 11:33:32;;;;;;;10.30;9.30;;;10.60;59.20;;;;;;5977074;23;20434;-70
2022/03/13 11:36:28;;;;;;;11.37;10.20;;;10.70;59.20;;;;;;5972361;24;20474;-69
2022/03/13 11:39:26;;;;;;;10.80;9.70;;;10.90;58.40;;;;;;5971743;24;20497;-69
2022/03/13 11:42:23;;;;;;;10.20;9.30;;;11.00;58.30;;;;;;5973220;24;20446;-69
2022/03/13 11:45:31;;;;;;;10.60;9.70;;;11.00;57.20;;;;;;5975251;24;20454;-69
2022/03/13 11:48:36;;;;;;;10.83;9.83;;;11.30;56.00;;;;;;5975889;24;21315;-70
2022/03/13 11:51:30;;;;;;;10.73;9.73;;;11.30;55.90;;;;;;5975739;24;20566;-70
2022/03/13 11:54:57;;;;;;;11.00;10.00;;;11.60;56.20;;;;;;5986312;23;20453;-70
2022/03/13 11:57:50;;;;;;;12.43;10.30;;;11.80;58.10;;;;;;5996159;23;20553;-70
2022/03/13 12:00:43;;;;;;;11.13;9.93;;;12.00;56.80;;;;;;6004919;23;20410;-70
2022/03/13 12:03:32;;;;;;;10.13;9.10;;;12.20;56.90;;;;;;6004578;23;20487;-70
2022/03/13 12:06:40;;;;;;;10.27;9.27;;;12.40;56.00;;;;;;6003230;23;20474;-70
2022/03/13 12:09:40;;;;;;;9.83;9.00;;;12.60;56.30;;;;;;6004036;23;20496;-70
2022/03/13 12:12:29;;;;;;;11.37;10.27;;;12.80;54.90;;;;;;6003577;23;20536;-70
2022/03/13 12:15:22;;;;;;;11.20;10.10;;;12.90;53.40;;;;;;5975721;23;20640;-70
2022/03/13 12:18:17;;;;;;;10.40;9.50;;;13.10;53.90;;;;;;5977893;24;20422;-70
2022/03/13 12:21:07;;;;;;;10.80;9.80;;;13.20;52.50;;;;;;5975691;24;20417;-70
2022/03/13 12:23:58;;;;;;;10.53;9.63;;;13.30;50.90;;;;;;5973802;24;20561;-70
2022/03/13 12:26:48;;;;;;;11.80;10.20;;;13.50;54.80;;;;;;5974814;24;20442;-69
2022/03/13 12:29:36;;;;;;;11.00;9.90;;;13.60;50.30;;;;;;5975657;24;20571;-69
2022/03/13 12:32:32;;;;;;;10.33;9.40;;;14.00;52.00;;;;;;5969604;24;20537;-70
2022/03/13 12:35:22;;;;;;;10.00;9.10;;;14.40;50.80;;;;;;5973088;24;20449;-69
2022/03/13 12:38:15;;;;;;;9.60;8.70;;;15.00;52.50;;;;;;5977323;24;20518;-69
2022/03/13 12:41:09;;;;;;;10.73;9.73;;;15.80;50.10;;;;;;5971463;24;21134;-69
2022/03/13 12:44:02;;;;;;;12.17;9.70;;;16.80;50.80;;;;;;5971720;24;20933;-69
2022/03/13 12:46:52;;;;;;;10.20;9.40;;;18.00;50.30;;;;;;5976319;24;20757;-69
2022/03/13 12:49:44;;;;;;;10.70;9.73;;;19.30;46.80;;;;;;5976281;24;20893;-69
2022/03/13 12:52:34;;;;;;;10.43;9.53;;;20.60;44.80;;;;;;5974376;24;20485;-70
2022/03/13 12:55:23;;;;;;;9.23;8.50;;;23.00;44.10;;;;;;5993586;23;20449;-70
2022/03/13 12:58:11;;;;;;;9.00;8.30;;;25.10;41.50;;;;;;5983479;23;20528;-70
2022/03/13 13:00:59;;;;;;;9.07;8.37;;;26.60;39.50;;;;;;5993908;23;20420;-70
2022/03/13 13:03:51;;;;;;;10.20;9.40;;;27.60;35.10;;;;;;5999025;23;20884;-69
2022/03/13 13:06:41;;;;;;;9.50;8.80;;;28.00;34.90;;;;;;6001917;23;20521;-70
2022/03/13 13:09:31;;;;;;;9.40;8.67;;;27.40;31.90;;;;;;6003274;23;20578;-70
2022/03/13 13:12:23;;;;;;;9.13;8.53;;;27.40;33.50;;;;;;6002166;23;20582;-70
2022/03/13 13:15:13;;;;;;;7.97;7.40;;;27.70;33.20;;;;;;5982301;23;20499;-70
2022/03/13 13:18:02;;;;;;;9.00;8.20;;;28.20;33.70;;;;;;5973081;24;20411;-70
2022/03/13 13:20:51;;;;;;;8.70;8.10;;;28.70;32.50;;;;;;5961934;24;20418;-70
2022/03/13 13:23:39;;;;;;;8.53;8.03;;;29.00;33.00;;;;;;5972806;24;20583;-70
2022/03/13 13:26:42;;;;;;;9.50;8.70;;;29.20;31.40;;;;;;5974168;24;20981;-70
2022/03/13 13:29:48;;;;;;;9.30;8.70;;;28.80;31.60;;;;;;5975450;24;20419;-70
2022/03/13 13:32:48;;;;;;;9.40;8.53;;;29.00;31.70;;;;;;5972815;24;20533;-70
2022/03/13 13:35:37;;;;;;;8.90;8.30;;;29.10;30.00;;;;;;5973189;24;20474;-70
2022/03/13 13:38:31;;;;;;;8.60;8.00;;;29.10;31.50;;;;;;5975145;24;20485;-70
2022/03/13 13:41:22;;;;;;;9.70;8.90;;;29.20;30.60;;;;;;5975541;23;20989;-70
2022/03/13 13:44:30;;;;;;;8.50;8.00;;;29.00;31.50;;;;;;5971004;24;20485;-70
2022/03/13 13:47:24;;;;;;;8.90;8.20;;;28.50;30.40;;;;;;5974484;24;20418;-70
2022/03/13 13:50:16;;;;;;;9.60;8.90;;;28.10;30.40;;;;;;5985129;24;20418;-70
2022/03/13 13:53:08;;;;;;;9.10;8.40;;;27.70;31.20;;;;;;5966708;24;20511;-70
2022/03/13 13:55:56;;;;;;;8.60;8.00;;;27.20;32.30;;;;;;6002371;23;20580;-70
2022/03/13 13:58:45;;;;;;;8.67;8.07;;;26.30;32.30;;;;;;6001569;23;20634;-70
2022/03/13 14:01:35;;;;;;;8.50;7.90;;;25.50;32.80;;;;;;6002648;23;20441;-70
2022/03/13 14:04:23;;;;;;;9.27;8.67;;;24.60;31.20;;;;;;5992356;23;20468;-70
2022/03/13 14:07:11;;;;;;;9.40;8.70;;;23.90;34.30;;;;;;5974902;24;20477;-70
2022/03/13 14:10:01;;;;;;;9.00;8.30;;;23.20;34.50;;;;;;5975622;24;20478;-70
2022/03/13 14:12:49;;;;;;;10.20;9.40;;;22.70;34.40;;;;;;5967821;24;20552;-70
2022/03/13 14:15:38;;;;;;;10.03;9.13;;;22.20;34.90;;;;;;5952813;24;20450;-70
2022/03/13 14:18:27;;;;;;;10.33;9.50;;;22.00;35.10;;;;;;5973407;24;21189;-70
2022/03/13 14:21:16;;;;;;;9.73;8.93;;;21.50;35.80;;;;;;5972449;24;20610;-70
2022/03/13 14:24:05;;;;;;;9.40;8.70;;;20.80;34.30;;;;;;5974161;24;20450;-70
2022/03/13 14:26:54;;;;;;;9.57;8.77;;;20.20;34.90;;;;;;5973902;24;20494;-70
2022/03/13 14:29:42;;;;;;;10.00;9.20;;;19.60;35.80;;;;;;5969021;24;20518;-70
2022/03/13 14:32:30;;;;;;;9.20;8.50;;;19.10;36.50;;;;;;5973701;24;20498;-69
2022/03/13 14:35:20;;;;;;;9.73;8.93;;;18.60;36.30;;;;;;5973380;24;20458;-69
2022/03/13 14:38:08;;;;;;;10.23;9.33;;;18.20;35.90;;;;;;5983655;24;20422;-69
2022/03/13 14:40:59;;;;;;;9.70;8.80;;;17.50;36.10;;;;;;5968142;24;21249;-70
2022/03/13 14:43:47;;;;;;;10.00;9.00;;;17.10;37.80;;;;;;5973331;24;20486;-70